Date,TemperatureHighF,TemperatureAvgF,TemperatureLowF,DewpointHighF,DewpointAvgF,DewpointLowF,HumidityHigh,HumidityAvg,HumidityLow,PressureMaxIn,PressureMinIn,WindSpeedMaxMPH,WindSpeedAvgMPH,GustSpeedMaxMPH,PrecipitationSumIn
2013-1-1,46.9,42.9,38.1,42.0,35.6,30.0,99,77,53,30.23,30.17,21,11,26,0.00
2013-1-2,48.8,41.4,39.6,37.0,23.0,-99.9,82,59,54,30.20,30.10,20,-62,28,0.00
2013-1-3,47.0,37.6,38.7,40.0,16.5,-99.9,88,63,51,30.23,30.12,21,-131,22,0.00
2013-1-4,51.0,39.1,40.6,38.0,15.8,-99.9,81,59,54,30.24,30.15,19,-139,22,0.00
2013-1-5,48.4,38.9,43.0,46.0,21.3,-99.9,100,77,70,30.22,30.02,11,-152,15,0.36
2013-1-6,47.9,44.1,41.1,45.0,42.4,41.0,100,93,79,30.16,30.01,15,7,21,0.18
2013-1-7,55.1,48.5,43.1,49.0,44.6,39.0,95,86,78,30.23,30.13,10,3,11,0.00
2013-1-8,55.6,48.6,42.7,49.0,44.4,42.0,97,85,70,30.20,30.10,16,9,20,0.00
2013-1-9,48.3,47.3,46.8,43.0,43.0,43.0,87,84,82,30.11,30.10,15,13,17,0.00
2013-1-17,53.2,50.8,48.0,34.0,31.7,30.0,57,48,44,30.13,30.12,24,18,25,0.00
2013-1-18,55.4,46.0,45.3,37.0,19.9,-99.9,72,47,35,30.18,30.10,27,-83,31,0.00
2013-1-19,54.7,45.3,48.1,37.0,11.9,-99.9,55,37,31,30.19,30.11,24,-128,25,0.00
2013-1-20,56.0,46.8,48.7,34.0,13.8,-99.9,51,35,33,30.18,30.09,20,-103,25,0.00
2013-1-21,54.9,43.8,44.1,39.0,17.1,-99.9,69,49,47,30.13,30.04,26,-121,31,0.01
2013-1-22,59.8,47.4,45.6,42.0,24.5,-99.9,72,53,33,30.07,29.97,24,-85,27,0.00
2013-1-23,58.3,43.2,46.0,49.0,17.0,-99.9,99,59,31,30.04,29.91,16,-166,18,0.19
2013-1-24,52.4,49.5,45.9,51.0,48.9,46.0,100,98,92,30.16,30.01,17,11,21,0.00
2013-1-25,60.7,54.3,49.7,55.0,51.9,50.0,100,92,81,30.16,30.01,16,7,18,0.00
2013-1-26,55.8,48.8,44.0,51.0,44.3,36.0,100,85,54,30.04,29.94,25,11,31,0.00
2013-1-27,52.9,45.4,40.8,40.0,36.0,33.0,83,70,57,30.14,30.02,14,6,24,0.00
2013-1-28,53.0,41.7,42.0,42.0,22.4,-99.9,86,64,63,30.25,30.12,11,-112,18,0.00
2013-1-29,56.8,44.2,43.2,47.0,25.0,-99.9,84,64,63,30.32,30.24,12,-114,14,0.00
2013-1-30,59.9,48.0,49.0,49.0,26.9,-99.9,82,59,55,30.30,30.23,13,-110,14,0.00
2013-1-31,55.8,45.9,44.7,46.0,27.6,-99.9,89,67,66,30.24,30.14,20,-104,23,0.00